createdAt,value
2022-08-02T00:00:35.592Z,101234.31
2022-08-02T00:03:03.551Z,101237.56
2022-08-02T00:05:31.492Z,101225.31
2022-08-02T00:07:59.489Z,101230.31
2022-08-02T00:10:29.023Z,101231.59
2022-08-02T00:12:58.933Z,101234.78
2022-08-02T00:15:27.085Z,101232.06
2022-08-02T00:17:55.050Z,101232.53
2022-08-02T00:20:23.155Z,101230.84
2022-08-02T00:22:51.115Z,101229.16
2022-08-02T00:25:19.041Z,101237.16
2022-08-02T00:27:48.380Z,101235.66
2022-08-02T00:30:16.437Z,101243.66
2022-08-02T00:32:44.537Z,101230.72
2022-08-02T00:35:14.048Z,101230.03
2022-08-02T00:37:42.910Z,101227.94
2022-08-02T00:40:12.084Z,101225.50
2022-08-02T00:42:40.598Z,101223.00
2022-08-02T00:45:10.844Z,101224.81
2022-08-02T00:47:38.916Z,101231.19
2022-08-02T00:50:07.453Z,101233.41
2022-08-02T00:52:35.570Z,101230.78
2022-08-02T00:55:03.625Z,101238.44
2022-08-02T00:57:31.478Z,101230.78
2022-08-02T00:59:59.440Z,101231.66
2022-08-02T01:02:28.760Z,101240.41
2022-08-02T01:04:56.885Z,101237.28
2022-08-02T01:07:24.871Z,101237.28
2022-08-02T01:09:52.778Z,101244.28
2022-08-02T01:12:20.805Z,101245.91
2022-08-02T01:14:51.409Z,101246.78
2022-08-02T01:17:24.023Z,101249.50
2022-08-02T01:20:03.382Z,101242.38
2022-08-02T01:23:03.070Z,101248.41
2022-08-02T01:25:48.413Z,101247.53
2022-08-02T01:28:29.424Z,101245.75
2022-08-02T01:31:02.223Z,101244.97
2022-08-02T01:33:41.248Z,101241.44
2022-08-02T01:36:13.122Z,101245.03
2022-08-02T01:38:44.551Z,101253.38
2022-08-02T01:41:17.906Z,101261.31
2022-08-02T01:43:48.979Z,101258.03
2022-08-02T01:46:18.995Z,101263.09
2022-08-02T01:48:48.592Z,101261.31
2022-08-02T01:51:19.448Z,101259.16
2022-08-02T01:53:51.002Z,101256.72
2022-08-02T01:56:20.557Z,101262.34
2022-08-02T01:58:50.833Z,101255.28
2022-08-02T02:01:22.520Z,101258.88
2022-08-02T02:03:51.337Z,101252.72
2022-08-02T02:06:20.630Z,101250.72
2022-08-02T02:08:50.897Z,101250.94
2022-08-02T02:12:06.132Z,101251.41
2022-08-02T02:14:09.072Z,101251.56
2022-08-02T02:16:38.697Z,101254.84
2022-08-02T02:19:08.518Z,101251.63
2022-08-02T02:21:36.758Z,101253.34
2022-08-02T02:24:05.865Z,101253.53
2022-08-02T02:26:37.406Z,101244.19
2022-08-02T02:29:12.582Z,101247.06
2022-08-02T02:31:44.383Z,101250.75
2022-08-02T02:34:15.674Z,101253.84
2022-08-02T02:36:49.138Z,101245.28
2022-08-02T02:39:21.268Z,101247.28
2022-08-02T02:41:50.793Z,101254.47
2022-08-02T02:44:22.471Z,101258.94
2022-08-02T02:46:53.998Z,101252.63
2022-08-02T02:49:22.967Z,101247.22
2022-08-02T02:51:51.890Z,101245.53
2022-08-02T02:54:31.069Z,101241.44
2022-08-02T02:57:03.897Z,101252.19
2022-08-02T02:59:33.979Z,101246.84
2022-08-02T03:02:03.338Z,101253.00
2022-08-02T03:04:55.895Z,101246.25
2022-08-02T03:07:20.706Z,101258.72
2022-08-02T03:09:54.255Z,101259.84
2022-08-02T03:12:28.441Z,101262.59
2022-08-02T03:15:01.624Z,101259.72
2022-08-02T03:17:39.334Z,101260.25
2022-08-02T03:20:10.999Z,101267.31
2022-08-02T03:22:38.940Z,101264.25
2022-08-02T03:25:08.123Z,101270.91
2022-08-02T03:27:36.024Z,101277.50
2022-08-02T03:30:08.817Z,101287.50
2022-08-02T03:32:37.904Z,101280.34
2022-08-02T03:35:08.856Z,101287.03
2022-08-02T03:37:37.908Z,101285.44
2022-08-02T03:40:08.244Z,101282.44
2022-08-02T03:42:36.578Z,101292.13
2022-08-02T03:45:09.176Z,101282.41
2022-08-02T03:47:39.137Z,101286.66
2022-08-02T03:50:08.654Z,101295.84
2022-08-02T03:52:37.779Z,101295.94
2022-08-02T03:55:06.611Z,101293.28
2022-08-02T03:57:34.772Z,101297.97
2022-08-02T04:00:02.660Z,101290.53
2022-08-02T04:02:41.563Z,101293.47
2022-08-02T04:05:10.318Z,101298.19
2022-08-02T04:08:01.200Z,101296.28
2022-08-02T04:10:26.899Z,101303.88
2022-08-02T04:12:55.534Z,101302.75
2022-08-02T04:15:26.618Z,101308.28
2022-08-02T04:18:00.061Z,101311.06
2022-08-02T04:20:30.730Z,101314.59
2022-08-02T04:23:02.634Z,101318.91
2022-08-02T04:25:35.452Z,101312.44
2022-08-02T04:28:17.614Z,101317.47
2022-08-02T04:30:49.886Z,101315.22
2022-08-02T04:33:19.661Z,101313.97
2022-08-02T04:35:47.798Z,101314.72
2022-08-02T04:38:16.530Z,101320.97
2022-08-02T04:40:52.753Z,101322.97
2022-08-02T04:43:21.277Z,101318.28
2022-08-02T04:45:51.109Z,101320.00
2022-08-02T04:48:20.902Z,101322.72
2022-08-02T04:50:49.175Z,101326.59
2022-08-02T04:53:17.651Z,101326.69
2022-08-02T04:55:45.546Z,101336.56
2022-08-02T04:58:38.921Z,101332.22
2022-08-02T05:01:01.946Z,101337.66
2022-08-02T05:03:31.287Z,101329.81
2022-08-02T05:06:00.602Z,101341.09
2022-08-02T05:08:28.523Z,101337.16
2022-08-02T05:10:56.388Z,101332.81
2022-08-02T05:13:24.264Z,101337.47
2022-08-02T05:15:52.125Z,101336.66
2022-08-02T05:18:19.949Z,101337.25
2022-08-02T05:20:49.175Z,101338.53
2022-08-02T05:23:16.955Z,101345.50
2022-08-02T05:25:44.730Z,101342.97
2022-08-02T05:28:12.677Z,101338.72
2022-08-02T05:30:40.576Z,101335.41
2022-08-02T05:33:08.906Z,101336.91
2022-08-02T05:35:36.948Z,101343.38
2022-08-02T05:38:10.069Z,101345.00
2022-08-02T05:40:54.249Z,101348.13
2022-08-02T05:43:24.046Z,101349.19
2022-08-02T05:45:53.546Z,101352.63
2022-08-02T05:48:25.332Z,101362.41
2022-08-02T05:50:56.493Z,101361.41
2022-08-02T05:53:37.042Z,101373.88
2022-08-02T05:56:17.712Z,101368.50
2022-08-02T05:58:52.792Z,101377.97
2022-08-02T06:01:33.487Z,101376.56
2022-08-02T06:04:02.873Z,101380.06
2022-08-02T06:06:33.443Z,101377.38
2022-08-02T06:09:09.638Z,101379.91
2022-08-02T06:11:40.143Z,101374.28
2022-08-02T06:14:09.649Z,101382.56
2022-08-02T06:16:42.438Z,101378.84
2022-08-02T06:19:12.578Z,101385.41
2022-08-02T06:22:32.543Z,101384.13
2022-08-02T06:24:33.595Z,101372.91
2022-08-02T06:27:03.374Z,101372.59
2022-08-02T06:29:38.690Z,101377.09
2022-08-02T06:32:09.744Z,101375.63
2022-08-02T06:34:38.451Z,101376.19
2022-08-02T06:37:14.937Z,101378.75
2022-08-02T06:39:50.045Z,101379.88
2022-08-02T06:42:27.221Z,101372.56
2022-08-02T06:44:57.960Z,101377.47
2022-08-02T06:47:26.400Z,101371.28
2022-08-02T06:49:55.061Z,101369.53
2022-08-02T06:52:28.374Z,101373.22
2022-08-02T06:55:00.055Z,101364.59
2022-08-02T06:57:28.197Z,101368.41
2022-08-02T06:59:56.311Z,101373.28
2022-08-02T07:02:24.297Z,101370.66
2022-08-02T07:04:52.525Z,101364.50
2022-08-02T07:07:22.081Z,101358.63
2022-08-02T07:09:56.603Z,101364.25
2022-08-02T07:12:32.181Z,101362.31
2022-08-02T07:15:00.567Z,101356.31
2022-08-02T07:17:29.194Z,101360.34
2022-08-02T07:19:57.289Z,101360.31
2022-08-02T07:22:26.896Z,101364.34
2022-08-02T07:24:56.706Z,101361.28
2022-08-02T07:27:25.279Z,101356.44
2022-08-02T07:29:55.270Z,101365.66
2022-08-02T07:32:25.432Z,101363.31
2022-08-02T07:34:55.260Z,101360.28
2022-08-02T07:37:35.208Z,101357.34
2022-08-02T07:40:15.363Z,101352.47
2022-08-02T07:42:48.379Z,101350.31
2022-08-02T07:45:17.920Z,101361.13
2022-08-02T07:47:46.336Z,101359.72
2022-08-02T07:50:16.052Z,101353.84
2022-08-02T07:52:47.236Z,101347.19
2022-08-02T07:55:18.841Z,101346.69
2022-08-02T07:57:48.324Z,101348.03
2022-08-02T08:00:18.669Z,101342.69
2022-08-02T08:02:47.539Z,101338.69
2022-08-02T08:05:15.974Z,101334.50
2022-08-02T08:07:44.275Z,101343.19
2022-08-02T08:10:12.443Z,101349.91
2022-08-02T08:12:40.488Z,101359.63
2022-08-02T08:15:09.505Z,101350.41
2022-08-02T08:17:39.679Z,101350.91
2022-08-02T08:20:10.092Z,101343.88
2022-08-02T08:22:40.910Z,101341.72
2022-08-02T08:25:09.623Z,101337.53
2022-08-02T08:27:37.707Z,101339.34
2022-08-02T08:30:09.299Z,101339.00
2022-08-02T08:32:37.335Z,101333.31
2022-08-02T08:35:08.410Z,101335.13
2022-08-02T08:37:36.650Z,101332.97
2022-08-02T08:40:06.158Z,101327.94
2022-08-02T08:42:34.466Z,101329.28
2022-08-02T08:45:03.224Z,101323.38
2022-08-02T08:47:36.029Z,101326.03
2022-08-02T08:50:11.442Z,101320.97
2022-08-02T08:52:49.126Z,101323.50
2022-08-02T08:55:17.741Z,101325.97
2022-08-02T08:57:46.548Z,101324.38
2022-08-02T09:00:16.879Z,101332.72
2022-08-02T09:02:45.242Z,101334.47
2022-08-02T09:05:15.986Z,101337.22
2022-08-02T09:07:48.070Z,101327.94
2022-08-02T09:10:36.205Z,101331.91
2022-08-02T09:13:38.626Z,101332.34
2022-08-02T09:16:11.342Z,101327.81
2022-08-02T09:18:43.844Z,101326.03
2022-08-02T09:21:14.868Z,101321.00
2022-08-02T09:23:44.963Z,101324.72
2022-08-02T09:26:14.519Z,101326.22
2022-08-02T09:28:44.631Z,101317.22
2022-08-02T09:31:13.994Z,101317.69
2022-08-02T09:33:43.161Z,101321.72
2022-08-02T09:36:13.753Z,101316.69
2022-08-02T09:38:52.748Z,101319.00
2022-08-02T09:41:22.931Z,101304.16
2022-08-02T09:44:03.573Z,101314.88
2022-08-02T09:46:38.483Z,101294.84
2022-08-02T09:49:09.413Z,101307.72
2022-08-02T09:51:40.648Z,101310.56
2022-08-02T09:54:12.839Z,101313.41
2022-08-02T09:56:43.727Z,101306.91
2022-08-02T09:59:12.314Z,101302.41
2022-08-02T10:01:46.363Z,101303.81
2022-08-02T10:04:22.654Z,101303.63
2022-08-02T10:06:55.189Z,101305.00
2022-08-02T10:09:23.679Z,101308.69
2022-08-02T10:11:52.973Z,101303.28
2022-08-02T10:14:23.305Z,101298.41
2022-08-02T10:16:51.787Z,101307.53
2022-08-02T10:19:38.815Z,101314.75
2022-08-02T10:22:12.325Z,101317.53
2022-08-02T10:24:48.397Z,101313.78
2022-08-02T10:27:19.966Z,101312.59
2022-08-02T10:29:54.965Z,101312.34
2022-08-02T10:32:30.883Z,101307.38
2022-08-02T10:35:23.211Z,101314.75
2022-08-02T10:37:56.272Z,101327.47
2022-08-02T10:40:26.169Z,101313.16
2022-08-02T10:42:56.158Z,101321.38
2022-08-02T10:45:24.333Z,101316.59
2022-08-02T10:48:00.494Z,101311.41
2022-08-02T10:50:56.348Z,101311.69
2022-08-02T10:53:28.117Z,101310.53
2022-08-02T10:55:57.865Z,101302.63
2022-08-02T10:58:30.093Z,101286.38
2022-08-02T11:00:59.422Z,101280.56
2022-08-02T11:03:41.909Z,101279.22
2022-08-02T11:06:25.250Z,101281.81
2022-08-02T11:09:33.476Z,101278.78
2022-08-02T11:12:04.239Z,101279.66
2022-08-02T11:14:33.563Z,101276.94
2022-08-02T11:17:15.787Z,101269.00
2022-08-02T11:20:18.865Z,101259.16
2022-08-02T11:22:48.604Z,101262.34
2022-08-02T11:26:02.106Z,101259.88
2022-08-02T11:28:25.522Z,101254.91
2022-08-02T11:31:01.544Z,101248.28
2022-08-02T11:33:36.067Z,101250.84
2022-08-02T11:36:07.493Z,101247.97
2022-08-02T11:38:35.923Z,101257.13
2022-08-02T11:41:06.034Z,101269.13
2022-08-02T11:43:40.674Z,101266.44
2022-08-02T11:46:14.382Z,101264.63
2022-08-02T11:48:43.928Z,101257.16
2022-08-02T11:51:14.177Z,101261.13
2022-08-02T11:53:43.905Z,101250.13
2022-08-02T11:56:13.924Z,101256.84
2022-08-02T11:59:03.071Z,101252.56
2022-08-02T12:01:32.065Z,101250.09
2022-08-02T12:04:03.811Z,101251.56
2022-08-02T12:06:32.773Z,101250.38
2022-08-02T12:09:05.168Z,101241.34
2022-08-02T12:11:49.416Z,101238.66
2022-08-02T12:14:18.024Z,101237.41
2022-08-02T12:17:04.158Z,101231.50
2022-08-02T12:19:32.328Z,101232.03
2022-08-02T12:22:16.179Z,101227.09
2022-08-02T12:24:47.326Z,101230.53
2022-08-02T12:27:38.446Z,101227.25
2022-08-02T12:30:08.868Z,101221.69
2022-08-02T12:32:37.837Z,101226.41
2022-08-02T12:35:11.980Z,101230.56
2022-08-02T12:37:42.099Z,101225.78
2022-08-02T12:40:26.007Z,101223.16
2022-08-02T12:42:58.642Z,101223.75
2022-08-02T12:45:38.285Z,101219.13
2022-08-02T12:48:10.405Z,101221.75
2022-08-02T12:50:39.080Z,101218.84
2022-08-02T12:53:08.829Z,101211.41
2022-08-02T12:56:01.999Z,101215.56
2022-08-02T12:58:30.543Z,101210.13
2022-08-02T13:01:00.583Z,101207.00
2022-08-02T13:04:09.001Z,101190.81
2022-08-02T13:06:43.123Z,101196.41
2022-08-02T13:09:14.466Z,101201.19
2022-08-02T13:11:43.034Z,101199.44
2022-08-02T13:14:14.256Z,101198.50
2022-08-02T13:16:43.975Z,101200.41
2022-08-02T13:19:12.991Z,101203.16
2022-08-02T13:22:02.034Z,101199.69
2022-08-02T13:24:40.594Z,101197.09
2022-08-02T13:27:16.704Z,101201.63
2022-08-02T13:29:45.983Z,101196.47
2022-08-02T13:32:14.336Z,101194.09
2022-08-02T13:34:42.656Z,101185.38
2022-08-02T13:37:10.575Z,101186.19
2022-08-02T13:39:38.463Z,101179.47
2022-08-02T13:42:07.139Z,101177.13
2022-08-02T13:44:35.890Z,101173.00
2022-08-02T13:47:05.773Z,101165.31
2022-08-02T13:49:50.584Z,101165.22
2022-08-02T13:52:19.731Z,101162.84
2022-08-02T13:54:47.690Z,101161.59
2022-08-02T13:57:15.600Z,101153.28
2022-08-02T13:59:56.190Z,101168.25
2022-08-02T14:02:28.075Z,101163.78
2022-08-02T14:04:56.353Z,101152.34
2022-08-02T14:07:24.342Z,101157.44
2022-08-02T14:09:52.377Z,101155.34
2022-08-02T14:12:20.387Z,101156.38
2022-08-02T14:14:48.307Z,101146.78
2022-08-02T14:17:18.734Z,101141.13
2022-08-02T14:19:48.136Z,101145.00
2022-08-02T14:22:16.060Z,101136.97
2022-08-02T14:24:44.465Z,101134.91
2022-08-02T14:27:12.782Z,101128.06
2022-08-02T14:29:40.800Z,101128.28
2022-08-02T14:32:09.650Z,101130.69
2022-08-02T14:34:37.751Z,101131.66
2022-08-02T14:37:06.962Z,101122.91
2022-08-02T14:39:43.240Z,101123.25
2022-08-02T14:42:22.830Z,101114.56
2022-08-02T14:44:50.754Z,101111.59
2022-08-02T14:47:18.682Z,101114.28
2022-08-02T14:49:50.066Z,101108.88
2022-08-02T14:52:20.237Z,101117.06
2022-08-02T14:54:48.326Z,101104.97
2022-08-02T14:57:16.675Z,101098.25
2022-08-02T14:59:44.632Z,101102.75
2022-08-02T15:02:13.949Z,101098.59
2022-08-02T15:04:43.693Z,101096.03
2022-08-02T15:07:15.256Z,101097.25
2022-08-02T15:09:44.526Z,101100.47
2022-08-02T15:12:13.348Z,101088.31
2022-08-02T15:14:41.920Z,101077.97
2022-08-02T15:17:10.386Z,101078.06
2022-08-02T15:19:55.959Z,101083.06
2022-08-02T15:22:27.107Z,101086.41
2022-08-02T15:24:58.088Z,101087.78
2022-08-02T15:27:26.219Z,101082.97
2022-08-02T15:29:59.877Z,101088.69
2022-08-02T15:32:27.964Z,101083.59
2022-08-02T15:34:55.833Z,101086.34
2022-08-02T15:37:23.692Z,101088.50
2022-08-02T15:39:53.305Z,101086.16
2022-08-02T15:42:30.746Z,101087.59
2022-08-02T15:44:59.440Z,101100.66
2022-08-02T15:47:27.339Z,101098.28
2022-08-02T15:49:55.260Z,101100.88
2022-08-02T15:52:23.151Z,101092.03
2022-08-02T15:54:51.054Z,101084.28
2022-08-02T15:57:19.091Z,101088.47
2022-08-02T15:59:48.353Z,101091.34
2022-08-02T16:02:19.005Z,101079.53
2022-08-02T16:04:47.313Z,101082.06
2022-08-02T16:07:15.284Z,101076.78
2022-08-02T16:09:43.168Z,101070.44
2022-08-02T16:12:11.442Z,101072.91
2022-08-02T16:14:39.451Z,101072.44
2022-08-02T16:17:08.965Z,101066.63
2022-08-02T16:19:48.555Z,101075.03
2022-08-02T16:22:17.768Z,101068.41
2022-08-02T16:24:45.636Z,101070.00
2022-08-02T16:27:13.740Z,101063.00
2022-08-02T16:29:42.230Z,101065.41
2022-08-02T16:32:15.199Z,101066.03
2022-08-02T16:35:07.161Z,101068.72
2022-08-02T16:37:52.057Z,101064.97
2022-08-02T16:40:19.798Z,101073.03
2022-08-02T16:42:50.304Z,101065.97
2022-08-02T16:45:20.903Z,101058.03
2022-08-02T16:47:56.142Z,101056.09
2022-08-02T16:50:27.277Z,101062.13
2022-08-02T16:52:58.095Z,101059.91
2022-08-02T16:55:29.106Z,101057.72
2022-08-02T16:58:00.421Z,101055.38
2022-08-02T17:00:29.649Z,101049.31
2022-08-02T17:03:01.037Z,101047.25
2022-08-02T17:05:56.933Z,101055.09
2022-08-02T17:08:32.211Z,101047.31
2022-08-02T17:11:03.452Z,101039.94
2022-08-02T17:13:34.359Z,101042.44
2022-08-02T17:16:25.813Z,101044.25
2022-08-02T17:18:57.505Z,101040.63
2022-08-02T17:21:25.355Z,101051.97
2022-08-02T17:24:06.156Z,101054.66
2022-08-02T17:26:37.356Z,101049.75
2022-08-02T17:29:16.204Z,101053.31
2022-08-02T17:32:05.580Z,101057.19
2022-08-02T17:34:38.491Z,101054.22
2022-08-02T17:37:06.776Z,101055.72
2022-08-02T17:39:44.225Z,101056.72
2022-08-02T17:42:20.262Z,101057.19
2022-08-02T17:44:52.371Z,101063.69
2022-08-02T17:47:20.353Z,101064.28
2022-08-02T17:49:52.693Z,101068.78
2022-08-02T17:52:50.790Z,101074.81
2022-08-02T17:55:10.750Z,101067.03
2022-08-02T17:57:57.001Z,101072.75
2022-08-02T18:00:33.745Z,101066.22
2022-08-02T18:03:05.739Z,101073.38
2022-08-02T18:05:55.116Z,101071.78
2022-08-02T18:08:24.036Z,101072.78
2022-08-02T18:10:52.677Z,101065.03
2022-08-02T18:13:20.713Z,101082.69
2022-08-02T18:15:48.783Z,101073.56
2022-08-02T18:18:19.296Z,101079.81
2022-08-02T18:21:15.330Z,101082.50
2022-08-02T18:23:48.808Z,101083.53
2022-08-02T18:26:17.547Z,101080.63
2022-08-02T18:28:48.900Z,101081.25
2022-08-02T18:31:22.593Z,101085.16
2022-08-02T18:33:59.848Z,101088.44
2022-08-02T18:36:31.666Z,101079.50
2022-08-02T18:39:08.227Z,101083.22
2022-08-02T18:41:36.749Z,101086.09
2022-08-02T18:44:06.644Z,101087.94
2022-08-02T18:46:35.364Z,101081.47
2022-08-02T18:49:06.782Z,101080.03
2022-08-02T18:51:44.799Z,101087.03
2022-08-02T18:54:12.823Z,101090.84
2022-08-02T18:56:40.906Z,101087.13
2022-08-02T18:59:15.864Z,101086.53
2022-08-02T19:01:50.640Z,101092.94
2022-08-02T19:04:27.475Z,101095.34
2022-08-02T19:07:06.959Z,101090.72
2022-08-02T19:09:40.189Z,101085.66
2022-08-02T19:12:11.266Z,101090.19
2022-08-02T19:14:39.578Z,101084.94
2022-08-02T19:17:16.052Z,101085.16
2022-08-02T19:22:44.992Z,101080.09
2022-08-02T19:25:14.344Z,101084.41
2022-08-02T19:27:47.425Z,101082.28
2022-08-02T19:30:15.646Z,101088.00
2022-08-02T19:35:34.226Z,101092.41
2022-08-02T19:38:11.536Z,101088.78
2022-08-02T19:40:41.646Z,101081.41
2022-08-02T19:44:26.325Z,101083.03
2022-08-02T19:46:00.234Z,101089.88
2022-08-02T19:48:29.122Z,101086.19
2022-08-02T19:51:00.497Z,101086.28
2022-08-02T19:53:47.798Z,101087.06
2022-08-02T19:56:20.429Z,101095.88
2022-08-02T19:58:48.691Z,101093.34
2022-08-02T20:01:18.521Z,101088.75
2022-08-02T20:03:51.755Z,101090.16
2022-08-02T20:06:29.499Z,101082.28
2022-08-02T20:09:01.406Z,101087.38
2022-08-02T20:11:34.734Z,101090.16
2022-08-02T20:14:04.688Z,101095.06
2022-08-02T20:16:33.274Z,101089.50
2022-08-02T20:19:02.448Z,101096.19
2022-08-02T20:21:35.870Z,101091.97
2022-08-02T20:24:09.221Z,101086.72
2022-08-02T20:26:47.400Z,101086.78
2022-08-02T20:29:44.029Z,101096.88
2022-08-02T20:32:05.311Z,101089.94
2022-08-02T20:34:33.660Z,101091.53
2022-08-02T20:37:55.978Z,101088.00
2022-08-02T20:39:53.896Z,101095.66
2022-08-02T20:42:23.025Z,101104.34
2022-08-02T20:44:53.965Z,101101.41
2022-08-02T20:47:28.366Z,101096.38
2022-08-02T20:50:30.665Z,101106.25
2022-08-02T20:52:59.632Z,101104.44
2022-08-02T20:55:31.175Z,101105.84
2022-08-02T20:58:02.006Z,101102.25
2022-08-02T21:03:19.762Z,101095.00
2022-08-02T21:05:54.857Z,101090.56
2022-08-02T21:08:38.370Z,101093.59
2022-08-02T21:11:09.135Z,101096.69
2022-08-02T21:13:47.148Z,101090.94
2022-08-02T21:16:28.783Z,101086.81
2022-08-02T21:18:59.715Z,101093.94
2022-08-02T21:21:29.655Z,101083.16
2022-08-02T21:23:58.778Z,101091.41
2022-08-02T21:26:30.526Z,101092.03
2022-08-02T21:29:03.070Z,101099.31
2022-08-02T21:31:33.499Z,101098.25
2022-08-02T21:34:07.595Z,101092.94
2022-08-02T21:36:51.064Z,101096.25
2022-08-02T21:39:20.526Z,101095.16
2022-08-02T21:41:50.379Z,101094.28
2022-08-02T21:44:20.785Z,101093.16
2022-08-02T21:46:52.067Z,101103.91
2022-08-02T21:49:27.396Z,101099.88
2022-08-02T21:52:10.083Z,101102.06
2022-08-02T21:54:39.851Z,101105.41
2022-08-02T21:57:15.183Z,101105.09
2022-08-02T21:59:45.177Z,101099.41
2022-08-02T22:02:13.963Z,101104.94
2022-08-02T22:07:30.175Z,101105.22
2022-08-02T22:10:08.969Z,101100.84
2022-08-02T22:12:38.825Z,101106.38
2022-08-02T22:15:10.199Z,101111.25
2022-08-02T22:17:50.864Z,101107.19
2022-08-02T22:20:21.304Z,101111.88
2022-08-02T22:22:50.572Z,101113.25
2022-08-02T22:25:27.049Z,101118.91
2022-08-02T22:28:39.157Z,101113.16
2022-08-02T22:30:54.472Z,101126.00
2022-08-02T22:33:42.474Z,101120.00
2022-08-02T22:36:15.711Z,101114.66
2022-08-02T22:38:44.456Z,101119.69
2022-08-02T22:41:13.350Z,101121.22
2022-08-02T22:43:43.530Z,101127.25
2022-08-02T22:46:15.626Z,101119.75
2022-08-02T22:48:44.809Z,101133.78
2022-08-02T22:51:13.593Z,101131.28
2022-08-02T22:53:41.733Z,101130.44
2022-08-02T22:56:10.853Z,101131.09
2022-08-02T22:58:48.534Z,101085.53
2022-08-02T22:58:56.833Z,101100.47
2022-08-02T22:58:59.955Z,101087.19
2022-08-02T22:59:04.041Z,101104.59
2022-08-02T23:01:28.864Z,101135.28
2022-08-02T23:03:56.760Z,101143.31
2022-08-02T23:06:24.854Z,101142.84
2022-08-02T23:08:52.671Z,101140.19
2022-08-02T23:11:20.658Z,101145.19
2022-08-02T23:13:48.550Z,101145.88
2022-08-02T23:16:37.189Z,101142.88
2022-08-02T23:19:24.019Z,101146.22
2022-08-02T23:22:01.427Z,101142.06
2022-08-02T23:24:30.478Z,101137.22
2022-08-02T23:26:58.370Z,101133.06
2022-08-02T23:29:26.663Z,101138.03
2022-08-02T23:31:54.619Z,101138.22
2022-08-02T23:34:24.224Z,101133.72
2022-08-02T23:36:52.200Z,101135.22
2022-08-02T23:39:20.081Z,101134.06
2022-08-02T23:41:49.305Z,101133.56
2022-08-02T23:44:23.002Z,101141.91
2022-08-02T23:46:50.835Z,101142.25
2022-08-02T23:49:19.113Z,101144.25
2022-08-02T23:51:48.487Z,101142.25
2022-08-02T23:54:16.620Z,101129.56
2022-08-02T23:56:45.213Z,101136.25
2022-08-02T23:59:13.217Z,101133.75
